createdAt,value
2022-09-11T00:17:56.947Z,23.52
2022-09-11T00:28:21.532Z,22.63
2022-09-11T00:38:43.464Z,21.70
2022-09-11T00:49:16.714Z,22.08
2022-09-11T00:59:41.793Z,21.35
2022-09-11T01:10:05.864Z,18.38
2022-09-11T01:20:47.033Z,20.10
2022-09-11T01:41:40.582Z,18.02
2022-09-11T01:52:07.600Z,17.90
2022-09-11T02:02:49.767Z,17.08
2022-09-11T02:13:18.556Z,15.55
2022-09-11T02:23:40.148Z,15.90
2022-09-11T02:34:01.939Z,15.65
2022-09-11T02:44:50.258Z,15.30
2022-09-11T02:55:30.169Z,14.95
2022-09-11T03:05:51.735Z,12.18
2022-09-11T03:26:35.842Z,11.70
2022-09-11T03:36:57.314Z,11.82
2022-09-11T03:47:20.421Z,11.80
2022-09-11T03:57:42.171Z,11.25
2022-09-11T04:08:04.444Z,11.68
2022-09-11T04:18:26.035Z,10.40
2022-09-11T04:39:09.718Z,11.27
2022-09-11T04:49:31.270Z,11.27
2022-09-11T04:59:53.009Z,10.95
2022-09-11T05:10:14.460Z,11.40
2022-09-11T05:20:35.911Z,11.85
2022-09-11T05:30:59.035Z,12.93
2022-09-11T05:41:21.101Z,13.70
2022-09-11T05:51:42.680Z,13.95
2022-09-11T06:02:04.390Z,14.63
2022-09-11T06:12:27.327Z,16.35
2022-09-11T06:22:48.802Z,14.55
2022-09-11T06:33:10.443Z,14.23
2022-09-11T06:43:33.003Z,13.30
2022-09-11T06:53:58.359Z,13.90
2022-09-11T07:04:20.044Z,12.10
2022-09-11T07:14:41.491Z,12.25
2022-09-11T07:25:07.453Z,12.82
2022-09-11T07:35:29.186Z,12.55
2022-09-11T07:45:53.553Z,14.07
2022-09-11T07:56:20.359Z,14.85
2022-09-11T08:06:42.463Z,16.73
2022-09-11T08:17:03.910Z,15.93
2022-09-11T08:37:46.827Z,15.48
2022-09-11T08:48:11.281Z,15.10
2022-09-11T08:58:51.336Z,15.57
2022-09-11T09:09:25.484Z,11.47
2022-09-11T09:19:56.946Z,11.27
2022-09-11T09:30:27.255Z,9.25
2022-09-11T09:40:59.586Z,6.83
2022-09-11T09:51:21.075Z,8.25
2022-09-11T10:01:48.314Z,9.70
2022-09-11T10:12:16.681Z,9.30
2022-09-11T10:22:38.164Z,7.35
2022-09-11T10:33:03.830Z,4.65
2022-09-11T10:43:40.066Z,2.10
2022-09-11T10:54:16.893Z,1.73
2022-09-11T11:04:38.419Z,1.70
2022-09-11T11:15:27.037Z,1.50
2022-09-11T11:26:06.626Z,1.30
2022-09-11T11:36:39.473Z,0.80
2022-09-11T11:47:05.586Z,0.82
2022-09-11T11:57:33.990Z,0.90
2022-09-11T12:07:55.655Z,0.60
2022-09-11T12:18:24.813Z,0.50
2022-09-11T12:28:47.201Z,0.75
2022-09-11T12:39:18.185Z,0.50
2022-09-11T12:49:40.834Z,0.50
2022-09-11T13:00:11.799Z,0.60
2022-09-11T13:10:36.593Z,0.40
2022-09-11T13:21:26.368Z,0.70
2022-09-11T13:31:48.657Z,0.80
2022-09-11T13:42:17.054Z,0.70
2022-09-11T13:52:40.742Z,0.60
2022-09-11T14:03:02.506Z,0.70
2022-09-11T14:13:33.193Z,0.70
2022-09-11T14:23:58.690Z,0.50
2022-09-11T14:34:27.730Z,0.50
2022-09-11T14:44:49.522Z,0.40
2022-09-11T14:55:16.051Z,0.50
2022-09-11T15:05:38.029Z,0.40
2022-09-11T15:15:59.549Z,0.50
2022-09-11T15:26:21.208Z,0.60
2022-09-11T15:36:43.541Z,0.45
2022-09-11T15:47:05.167Z,0.50
2022-09-11T15:57:28.532Z,0.60
2022-09-11T16:07:50.090Z,0.60
2022-09-11T16:18:12.028Z,0.60
2022-09-11T16:28:36.327Z,0.65
2022-09-11T16:38:57.786Z,0.70
2022-09-11T16:49:19.421Z,0.60
2022-09-11T16:59:40.899Z,0.50
2022-09-11T17:10:03.275Z,0.70
2022-09-11T17:20:24.748Z,0.70
2022-09-11T17:30:46.829Z,0.63
2022-09-11T17:41:09.432Z,0.70
2022-09-11T17:51:30.925Z,0.75
2022-09-11T18:01:52.441Z,0.90
2022-09-11T18:12:14.597Z,1.00
2022-09-11T18:22:39.736Z,1.05
2022-09-11T18:33:01.495Z,1.25
2022-09-11T18:43:23.003Z,1.15
2022-09-11T18:53:47.292Z,1.20
2022-09-11T19:04:11.495Z,1.90
2022-09-11T19:14:33.306Z,1.75
2022-09-11T19:24:54.937Z,1.25
2022-09-11T19:35:17.575Z,1.45
2022-09-11T19:45:39.668Z,1.38
2022-09-11T19:56:01.612Z,1.38
2022-09-11T20:06:25.699Z,1.83
2022-09-11T20:16:47.277Z,1.70
2022-09-11T20:27:08.755Z,2.10
2022-09-11T20:37:30.446Z,2.30
2022-09-11T20:47:53.341Z,2.45
2022-09-11T20:58:14.915Z,3.00
2022-09-11T21:08:36.456Z,3.45
2022-09-11T21:18:59.358Z,3.42
2022-09-11T21:29:20.956Z,3.40
2022-09-11T21:39:42.529Z,3.60
2022-09-11T21:50:07.004Z,4.20
2022-09-11T22:00:28.462Z,4.10
2022-09-11T22:10:50.992Z,5.25
2022-09-11T22:21:12.589Z,5.80
2022-09-11T22:31:34.143Z,6.35
2022-09-11T22:41:55.667Z,7.30
2022-09-11T22:52:17.130Z,6.93
2022-09-11T23:02:38.668Z,6.28
2022-09-11T23:13:00.134Z,6.00
2022-09-11T23:44:05.361Z,5.95
2022-09-11T23:54:26.813Z,5.78
